createdAt,value
2023-05-05T00:00:41.775Z,1
2023-05-05T00:02:25.476Z,0
2023-05-05T00:05:52.897Z,1
2023-05-05T00:07:36.594Z,1
2023-05-05T00:09:20.284Z,1
2023-05-05T00:11:03.988Z,1
2023-05-05T00:12:47.692Z,1
2023-05-05T00:14:31.393Z,1
2023-05-05T00:16:15.123Z,1
2023-05-05T00:17:58.813Z,1
2023-05-05T00:19:42.516Z,1
2023-05-05T00:21:26.193Z,1
2023-05-05T00:23:09.906Z,1
2023-05-05T00:24:53.614Z,1
2023-05-05T00:26:37.321Z,1
2023-05-05T00:28:21.022Z,1
2023-05-05T00:30:04.718Z,1
2023-05-05T00:31:48.416Z,0
2023-05-05T00:33:32.122Z,0
2023-05-05T00:35:15.828Z,1
2023-05-05T00:36:59.516Z,1
2023-05-05T00:38:43.246Z,1
2023-05-05T00:40:26.933Z,1
2023-05-05T00:42:10.636Z,1
2023-05-05T00:43:54.344Z,1
2023-05-05T00:45:38.035Z,1
2023-05-05T00:47:21.748Z,1
2023-05-05T00:49:05.446Z,1
2023-05-05T00:50:49.153Z,1
2023-05-05T00:54:16.545Z,1
2023-05-05T00:56:00.249Z,1
2023-05-05T00:57:43.959Z,1
2023-05-05T00:59:27.668Z,1
2023-05-05T01:01:11.357Z,1
2023-05-05T01:02:55.091Z,1
2023-05-05T01:04:38.774Z,1
2023-05-05T01:06:22.465Z,0
2023-05-05T01:08:06.190Z,0
2023-05-05T01:09:49.869Z,0
2023-05-05T01:11:33.572Z,1
2023-05-05T01:13:17.272Z,0
2023-05-05T01:15:00.980Z,1
2023-05-05T01:16:44.679Z,1
2023-05-05T01:18:28.380Z,1
2023-05-05T01:20:12.085Z,0
2023-05-05T01:21:55.785Z,1
2023-05-05T01:23:39.489Z,1
2023-05-05T01:25:23.191Z,1
2023-05-05T01:27:06.894Z,1
2023-05-05T01:28:50.592Z,1
2023-05-05T01:30:34.304Z,0
2023-05-05T01:32:17.996Z,1
2023-05-05T01:34:01.704Z,1
2023-05-05T01:35:45.417Z,1
2023-05-05T01:37:29.111Z,1
2023-05-05T01:39:12.818Z,0
2023-05-05T01:40:56.514Z,2
2023-05-05T01:42:40.223Z,1
2023-05-05T01:44:23.916Z,1
2023-05-05T01:46:07.619Z,0
2023-05-05T01:47:51.318Z,1
2023-05-05T01:49:35.033Z,1
2023-05-05T01:51:18.726Z,0
2023-05-05T01:53:02.425Z,1
2023-05-05T01:54:46.122Z,1
2023-05-05T01:56:29.834Z,0
2023-05-05T01:58:13.540Z,2
2023-05-05T01:59:57.259Z,1
2023-05-05T02:01:40.945Z,1
2023-05-05T02:03:24.649Z,1
2023-05-05T02:05:08.346Z,1
2023-05-05T02:06:52.077Z,0
2023-05-05T02:08:35.752Z,1
2023-05-05T02:10:19.449Z,1
2023-05-05T02:13:46.875Z,0
2023-05-05T02:15:30.570Z,0
2023-05-05T02:17:14.269Z,2
2023-05-05T02:18:57.965Z,2
2023-05-05T02:20:41.677Z,1
2023-05-05T02:22:25.370Z,1
2023-05-05T02:24:09.080Z,0
2023-05-05T02:25:52.789Z,1
2023-05-05T02:27:36.479Z,1
2023-05-05T02:29:20.184Z,1
2023-05-05T02:31:03.892Z,1
2023-05-05T02:32:47.591Z,2
2023-05-05T02:34:31.311Z,1
2023-05-05T02:36:14.995Z,1
2023-05-05T02:37:58.702Z,0
2023-05-05T02:39:42.408Z,1
2023-05-05T02:41:26.104Z,1
2023-05-05T02:43:09.897Z,1
2023-05-05T02:44:53.551Z,0
2023-05-05T02:46:37.208Z,1
2023-05-05T02:48:20.911Z,1
2023-05-05T02:50:04.630Z,1
2023-05-05T02:53:32.020Z,1
2023-05-05T02:55:15.714Z,0
2023-05-05T02:56:59.416Z,2
2023-05-05T02:58:43.150Z,2
2023-05-05T03:00:26.823Z,1
2023-05-05T03:02:10.532Z,1
2023-05-05T03:03:54.258Z,2
2023-05-05T03:05:37.947Z,1
2023-05-05T03:09:05.335Z,2
2023-05-05T03:10:49.042Z,1
2023-05-05T03:12:32.744Z,1
2023-05-05T03:14:16.448Z,2
2023-05-05T03:16:00.152Z,0
2023-05-05T03:17:43.854Z,2
2023-05-05T03:19:27.559Z,1
2023-05-05T03:21:11.264Z,1
2023-05-05T03:22:54.963Z,1
2023-05-05T03:24:38.664Z,1
2023-05-05T03:26:22.371Z,1
2023-05-05T03:28:06.058Z,0
2023-05-05T03:29:49.769Z,1
2023-05-05T03:31:33.473Z,1
2023-05-05T03:33:17.184Z,1
2023-05-05T03:35:00.881Z,1
2023-05-05T03:36:44.580Z,1
2023-05-05T03:38:28.280Z,2
2023-05-05T03:40:12.208Z,3
2023-05-05T03:41:55.675Z,2
2023-05-05T03:43:39.398Z,2
2023-05-05T03:45:23.102Z,2
2023-05-05T03:47:06.817Z,3
2023-05-05T03:48:50.507Z,4
2023-05-05T03:50:34.195Z,5
2023-05-05T03:52:17.904Z,6
2023-05-05T03:54:01.610Z,8
2023-05-05T03:55:45.300Z,9
2023-05-05T03:57:29.012Z,10
2023-05-05T03:59:12.716Z,11
2023-05-05T04:00:56.409Z,12
2023-05-05T04:02:40.122Z,14
2023-05-05T04:04:23.817Z,17
2023-05-05T04:06:07.526Z,19
2023-05-05T04:07:51.225Z,21
2023-05-05T04:09:34.924Z,24
2023-05-05T04:11:18.631Z,30
2023-05-05T04:13:02.331Z,31
2023-05-05T04:14:46.033Z,32
2023-05-05T04:16:29.737Z,29
2023-05-05T04:18:13.440Z,31
2023-05-05T04:19:57.133Z,34
2023-05-05T04:21:40.847Z,37
2023-05-05T04:23:24.550Z,41
2023-05-05T04:25:08.257Z,45
2023-05-05T04:26:51.958Z,49
2023-05-05T04:28:35.656Z,54
2023-05-05T04:30:19.372Z,59
2023-05-05T04:32:03.089Z,66
2023-05-05T04:33:46.810Z,73
2023-05-05T04:35:30.459Z,86
2023-05-05T04:37:14.170Z,113
2023-05-05T04:38:57.922Z,120
2023-05-05T04:40:41.581Z,111
2023-05-05T04:42:25.279Z,154
2023-05-05T04:44:08.972Z,161
2023-05-05T04:45:52.677Z,163
2023-05-05T04:47:36.410Z,160
2023-05-05T04:49:20.073Z,137
2023-05-05T04:51:03.784Z,183
2023-05-05T04:52:47.480Z,141
2023-05-05T04:54:31.186Z,143
2023-05-05T04:56:14.887Z,148
2023-05-05T04:57:58.595Z,155
2023-05-05T04:59:42.316Z,190
2023-05-05T05:01:25.990Z,162
2023-05-05T05:03:09.690Z,163
2023-05-05T05:04:53.393Z,166
2023-05-05T05:06:37.109Z,176
2023-05-05T05:08:20.813Z,187
2023-05-05T05:10:04.499Z,199
2023-05-05T05:11:48.208Z,211
2023-05-05T05:13:31.912Z,223
2023-05-05T05:15:15.607Z,237
2023-05-05T05:16:59.311Z,250
2023-05-05T05:18:43.019Z,260
2023-05-05T05:20:26.708Z,267
2023-05-05T05:22:10.418Z,276
2023-05-05T05:23:54.112Z,293
2023-05-05T05:25:37.824Z,320
2023-05-05T05:27:21.532Z,352
2023-05-05T05:29:05.243Z,376
2023-05-05T05:30:48.931Z,383
2023-05-05T05:32:32.635Z,429
2023-05-05T05:34:16.381Z,450
2023-05-05T05:36:00.035Z,421
2023-05-05T05:37:43.757Z,435
2023-05-05T05:39:27.453Z,441
2023-05-05T05:41:11.149Z,556
2023-05-05T05:42:54.844Z,574
2023-05-05T05:44:38.551Z,484
2023-05-05T05:46:22.258Z,572
2023-05-05T05:48:05.948Z,565
2023-05-05T05:49:49.655Z,586
2023-05-05T05:51:33.358Z,580
2023-05-05T05:53:17.067Z,578
2023-05-05T05:55:00.772Z,499
2023-05-05T05:56:44.480Z,341
2023-05-05T05:58:28.180Z,331
2023-05-05T06:00:11.882Z,326
2023-05-05T06:01:55.572Z,325
2023-05-05T06:03:39.341Z,329
2023-05-05T06:05:22.987Z,333
2023-05-05T06:07:06.679Z,341
2023-05-05T06:08:50.400Z,353
2023-05-05T06:10:34.091Z,359
2023-05-05T06:12:17.927Z,363
2023-05-05T06:14:01.499Z,368
2023-05-05T06:15:45.206Z,379
2023-05-05T06:17:28.907Z,387
2023-05-05T06:19:12.665Z,401
2023-05-05T06:20:56.306Z,421
2023-05-05T06:22:40.011Z,448
2023-05-05T06:24:23.704Z,472
2023-05-05T06:26:07.412Z,484
2023-05-05T06:27:51.121Z,498
2023-05-05T06:29:34.811Z,511
2023-05-05T06:31:18.511Z,521
2023-05-05T06:33:02.309Z,532
2023-05-05T06:34:45.924Z,540
2023-05-05T06:36:29.790Z,547
2023-05-05T06:38:13.324Z,627
2023-05-05T06:39:57.079Z,585
2023-05-05T06:41:40.729Z,521
2023-05-05T06:43:24.451Z,505
2023-05-05T06:45:08.148Z,506
2023-05-05T06:46:51.852Z,510
2023-05-05T06:48:35.559Z,500
2023-05-05T06:50:19.273Z,485
2023-05-05T06:52:02.951Z,474
2023-05-05T06:55:30.481Z,452
2023-05-05T06:57:14.058Z,434
2023-05-05T07:00:41.461Z,421
2023-05-05T07:02:25.162Z,423
2023-05-05T07:04:08.876Z,428
2023-05-05T07:05:52.564Z,433
2023-05-05T07:07:36.280Z,435
2023-05-05T07:09:20.013Z,432
2023-05-05T07:11:03.688Z,427
2023-05-05T07:12:47.397Z,426
2023-05-05T07:14:31.090Z,437
2023-05-05T07:16:14.934Z,446
2023-05-05T07:17:58.703Z,452
2023-05-05T07:19:42.341Z,444
2023-05-05T07:21:26.066Z,425
2023-05-05T07:24:53.553Z,392
2023-05-05T07:26:37.183Z,386
2023-05-05T07:28:20.875Z,381
2023-05-05T07:30:04.483Z,375
2023-05-05T07:31:48.214Z,353
2023-05-05T07:33:32.027Z,329
2023-05-05T07:35:15.564Z,310
2023-05-05T07:36:59.225Z,287
2023-05-05T07:38:42.976Z,266
2023-05-05T07:40:26.629Z,252
2023-05-05T07:42:10.392Z,236
2023-05-05T07:43:54.043Z,227
2023-05-05T07:45:37.821Z,223
2023-05-05T07:47:21.457Z,218
2023-05-05T07:49:05.137Z,212
2023-05-05T07:50:48.992Z,212
2023-05-05T07:52:32.590Z,207
2023-05-05T07:54:16.349Z,200
2023-05-05T07:55:59.963Z,200
2023-05-05T07:57:43.642Z,200
2023-05-05T07:59:27.354Z,204
2023-05-05T08:01:11.054Z,205
2023-05-05T08:02:54.752Z,213
2023-05-05T08:04:38.455Z,224
2023-05-05T08:06:22.156Z,235
2023-05-05T08:08:05.874Z,249
2023-05-05T08:09:49.568Z,266
2023-05-05T08:11:33.275Z,285
2023-05-05T08:13:16.978Z,300
2023-05-05T08:15:00.673Z,309
2023-05-05T08:16:44.372Z,309
2023-05-05T08:18:28.082Z,302
2023-05-05T08:20:11.782Z,298
2023-05-05T08:21:55.487Z,302
2023-05-05T08:23:39.198Z,311
2023-05-05T08:25:22.900Z,327
2023-05-05T08:27:06.593Z,343
2023-05-05T08:28:50.299Z,366
2023-05-05T08:30:33.987Z,399
2023-05-05T08:32:17.699Z,428
2023-05-05T08:34:01.400Z,459
2023-05-05T08:35:45.109Z,487
2023-05-05T08:37:28.838Z,505
2023-05-05T08:39:12.505Z,511
2023-05-05T08:40:56.217Z,521
2023-05-05T08:42:39.920Z,534
2023-05-05T08:44:23.620Z,540
2023-05-05T08:46:07.382Z,542
2023-05-05T08:47:51.059Z,537
2023-05-05T08:49:34.746Z,533
2023-05-05T08:51:18.520Z,527
2023-05-05T08:53:02.152Z,529
2023-05-05T08:54:45.833Z,535
2023-05-05T08:56:29.537Z,550
2023-05-05T08:58:13.236Z,571
2023-05-05T08:59:56.960Z,586
2023-05-05T09:01:40.690Z,598
2023-05-05T09:03:24.343Z,613
2023-05-05T09:05:08.054Z,638
2023-05-05T09:06:51.753Z,672
2023-05-05T09:08:35.459Z,710
2023-05-05T09:10:19.215Z,738
2023-05-05T09:12:02.851Z,740
2023-05-05T09:13:46.558Z,739
2023-05-05T09:15:30.274Z,740
2023-05-05T09:17:13.968Z,739
2023-05-05T09:18:57.660Z,740
2023-05-05T09:20:41.438Z,740
2023-05-05T09:22:25.081Z,740
2023-05-05T09:24:08.780Z,739
2023-05-05T09:25:52.483Z,739
2023-05-05T09:27:36.182Z,740
2023-05-05T09:29:19.906Z,739
2023-05-05T09:31:03.597Z,739
2023-05-05T09:32:47.301Z,739
2023-05-05T09:34:30.997Z,740
2023-05-05T09:36:14.706Z,740
2023-05-05T09:37:58.427Z,740
2023-05-05T09:39:42.127Z,739
2023-05-05T09:41:25.849Z,740
2023-05-05T09:43:09.514Z,731
2023-05-05T09:44:53.202Z,740
2023-05-05T09:46:36.916Z,739
2023-05-05T09:48:20.607Z,740
2023-05-05T09:50:04.373Z,741
2023-05-05T09:51:48.026Z,740
2023-05-05T09:53:31.807Z,739
2023-05-05T09:55:15.474Z,740
2023-05-05T09:56:59.134Z,735
2023-05-05T09:58:42.836Z,741
2023-05-05T10:00:26.695Z,740
2023-05-05T10:02:10.382Z,740
2023-05-05T10:03:53.996Z,740
2023-05-05T10:05:37.800Z,741
2023-05-05T10:07:21.433Z,739
2023-05-05T10:09:05.187Z,739
2023-05-05T10:10:48.882Z,734
2023-05-05T10:12:32.442Z,696
2023-05-05T10:14:16.237Z,675
2023-05-05T10:16:00.027Z,667
2023-05-05T10:17:43.715Z,664
2023-05-05T10:19:27.460Z,655
2023-05-05T10:21:11.105Z,638
2023-05-05T10:22:54.696Z,624
2023-05-05T10:24:38.368Z,621
2023-05-05T10:26:22.119Z,624
2023-05-05T10:28:05.774Z,607
2023-05-05T10:29:49.473Z,589
2023-05-05T10:31:33.173Z,563
2023-05-05T10:33:16.875Z,536
2023-05-05T10:35:00.577Z,511
2023-05-05T10:36:44.311Z,485
2023-05-05T10:38:28.163Z,459
2023-05-05T10:40:11.805Z,435
2023-05-05T10:41:55.385Z,417
2023-05-05T10:43:39.137Z,407
2023-05-05T10:47:06.504Z,422
2023-05-05T10:48:50.243Z,443
2023-05-05T10:50:33.903Z,462
2023-05-05T10:52:17.616Z,483
2023-05-05T10:54:01.304Z,505
2023-05-05T10:55:45.015Z,526
2023-05-05T10:57:28.708Z,561
2023-05-05T10:59:12.414Z,602
2023-05-05T11:00:56.124Z,650
2023-05-05T11:02:39.822Z,686
2023-05-05T11:04:23.516Z,719
2023-05-05T11:06:07.225Z,731
2023-05-05T11:07:50.972Z,740
2023-05-05T11:09:34.750Z,739
2023-05-05T11:11:18.398Z,740
2023-05-05T11:13:02.218Z,740
2023-05-05T11:14:45.772Z,739
2023-05-05T11:16:29.425Z,739
2023-05-05T11:18:13.136Z,740
2023-05-05T11:19:56.877Z,740
2023-05-05T11:21:40.545Z,739
2023-05-05T11:23:24.263Z,740
2023-05-05T11:25:07.946Z,741
2023-05-05T11:26:51.654Z,740
2023-05-05T11:28:35.361Z,729
2023-05-05T11:30:19.055Z,739
2023-05-05T11:32:02.865Z,740
2023-05-05T11:33:46.550Z,740
2023-05-05T11:35:30.158Z,740
2023-05-05T11:37:13.873Z,740
2023-05-05T11:38:57.562Z,739
2023-05-05T11:40:41.267Z,741
2023-05-05T11:42:24.974Z,732
2023-05-05T11:44:08.674Z,739
2023-05-05T11:45:52.384Z,739
2023-05-05T11:47:36.087Z,740
2023-05-05T11:49:19.781Z,740
2023-05-05T11:51:03.492Z,740
2023-05-05T11:52:47.184Z,740
2023-05-05T11:54:30.889Z,741
2023-05-05T11:56:14.590Z,731
2023-05-05T11:57:58.407Z,740
2023-05-05T11:59:42.029Z,740
2023-05-05T12:01:25.695Z,740
2023-05-05T12:03:09.402Z,740
2023-05-05T12:04:53.098Z,740
2023-05-05T12:06:36.802Z,739
2023-05-05T12:08:20.524Z,740
2023-05-05T12:10:04.208Z,740
2023-05-05T12:11:47.918Z,741
2023-05-05T12:13:31.627Z,740
2023-05-05T12:15:15.363Z,739
2023-05-05T12:16:59.025Z,740
2023-05-05T12:18:42.750Z,741
2023-05-05T12:20:26.424Z,741
2023-05-05T12:22:10.121Z,740
2023-05-05T12:23:53.838Z,739
2023-05-05T12:25:37.530Z,740
2023-05-05T12:27:21.249Z,741
2023-05-05T12:29:04.989Z,740
2023-05-05T12:30:48.685Z,740
2023-05-05T12:32:32.388Z,740
2023-05-05T12:34:16.047Z,741
2023-05-05T12:35:59.763Z,740
2023-05-05T12:37:43.454Z,739
2023-05-05T12:39:27.151Z,740
2023-05-05T12:41:10.919Z,741
2023-05-05T12:42:54.555Z,740
2023-05-05T12:44:38.321Z,740
2023-05-05T12:46:21.999Z,740
2023-05-05T12:48:05.666Z,740
2023-05-05T12:49:49.416Z,740
2023-05-05T12:53:16.774Z,739
2023-05-05T12:55:00.478Z,740
2023-05-05T12:56:44.199Z,741
2023-05-05T12:58:27.962Z,740
2023-05-05T13:00:11.588Z,740
2023-05-05T13:01:55.300Z,742
2023-05-05T13:03:39.000Z,740
2023-05-05T13:05:22.702Z,738
2023-05-05T13:07:06.399Z,740
2023-05-05T13:08:50.126Z,740
2023-05-05T13:10:33.812Z,741
2023-05-05T13:12:17.522Z,740
2023-05-05T13:14:01.207Z,740
2023-05-05T13:15:44.923Z,740
2023-05-05T13:17:28.712Z,740
2023-05-05T13:19:12.394Z,741
2023-05-05T13:20:56.023Z,739
2023-05-05T13:22:39.725Z,740
2023-05-05T13:24:23.421Z,741
2023-05-05T13:26:07.131Z,741
2023-05-05T13:27:50.882Z,740
2023-05-05T13:29:34.531Z,739
2023-05-05T13:31:18.244Z,740
2023-05-05T13:33:01.947Z,741
2023-05-05T13:34:45.639Z,741
2023-05-05T13:36:29.348Z,740
2023-05-05T13:38:13.052Z,739
2023-05-05T13:39:56.763Z,741
2023-05-05T13:41:40.459Z,741
2023-05-05T13:43:24.153Z,740
2023-05-05T13:45:07.855Z,740
2023-05-05T13:46:51.569Z,741
2023-05-05T13:48:35.262Z,740
2023-05-05T13:50:18.962Z,741
2023-05-05T13:52:02.667Z,740
2023-05-05T13:53:46.373Z,742
2023-05-05T13:55:30.073Z,741
2023-05-05T13:57:13.771Z,741
2023-05-05T13:58:57.498Z,741
2023-05-05T14:00:41.237Z,740
2023-05-05T14:02:24.899Z,641
2023-05-05T14:04:08.593Z,579
2023-05-05T14:05:52.281Z,555
2023-05-05T14:07:35.994Z,548
2023-05-05T14:09:19.699Z,531
2023-05-05T14:11:03.394Z,512
2023-05-05T14:12:47.105Z,496
2023-05-05T14:14:30.801Z,480
2023-05-05T14:16:14.500Z,465
2023-05-05T14:19:41.913Z,420
2023-05-05T14:21:25.609Z,404
2023-05-05T14:23:09.312Z,392
2023-05-05T14:24:52.998Z,380
2023-05-05T14:26:36.791Z,367
2023-05-05T14:28:20.421Z,354
2023-05-05T14:30:04.115Z,345
2023-05-05T14:31:47.829Z,337
2023-05-05T14:33:31.519Z,331
2023-05-05T14:35:15.225Z,324
2023-05-05T14:36:58.953Z,318
2023-05-05T14:38:42.635Z,320
2023-05-05T14:40:26.328Z,325
2023-05-05T14:42:10.040Z,329
2023-05-05T14:43:53.734Z,334
2023-05-05T14:45:37.442Z,337
2023-05-05T14:47:21.138Z,338
2023-05-05T14:49:04.844Z,340
2023-05-05T14:50:48.613Z,338
2023-05-05T14:52:32.269Z,330
2023-05-05T14:54:15.943Z,316
2023-05-05T14:55:59.649Z,303
2023-05-05T14:57:43.371Z,288
2023-05-05T14:59:27.060Z,274
2023-05-05T15:01:10.751Z,263
2023-05-05T15:02:54.491Z,253
2023-05-05T15:04:38.159Z,243
2023-05-05T15:06:21.881Z,233
2023-05-05T15:08:05.569Z,224
2023-05-05T15:09:49.303Z,211
2023-05-05T15:11:32.973Z,199
2023-05-05T15:13:16.697Z,190
2023-05-05T15:15:00.421Z,179
2023-05-05T15:16:44.090Z,168
2023-05-05T15:18:27.788Z,159
2023-05-05T15:20:11.486Z,148
2023-05-05T15:21:55.180Z,137
2023-05-05T15:23:38.896Z,125
2023-05-05T15:25:22.580Z,114
2023-05-05T15:27:06.296Z,108
2023-05-05T15:28:49.992Z,104
2023-05-05T15:30:33.734Z,98
2023-05-05T15:32:17.408Z,92
2023-05-05T15:34:01.088Z,88
2023-05-05T15:35:44.809Z,85
2023-05-05T15:37:28.558Z,82
2023-05-05T15:39:12.200Z,79
2023-05-05T15:40:55.909Z,77
2023-05-05T15:42:39.776Z,77
2023-05-05T15:44:23.326Z,78
2023-05-05T15:46:07.104Z,81
2023-05-05T15:47:50.707Z,83
2023-05-05T15:49:34.419Z,75
2023-05-05T15:51:18.157Z,89
2023-05-05T15:53:01.819Z,86
2023-05-05T15:54:45.531Z,81
2023-05-05T15:56:29.217Z,72
2023-05-05T15:58:12.929Z,63
2023-05-05T15:59:56.648Z,58
2023-05-05T16:01:40.328Z,54
2023-05-05T16:03:24.019Z,50
2023-05-05T16:05:07.743Z,45
2023-05-05T16:06:51.441Z,42
2023-05-05T16:08:35.146Z,39
2023-05-05T16:10:18.851Z,37
2023-05-05T16:12:02.545Z,34
2023-05-05T16:13:46.254Z,32
2023-05-05T16:15:29.966Z,30
2023-05-05T16:17:13.650Z,29
2023-05-05T16:18:57.402Z,28
2023-05-05T16:20:41.057Z,27
2023-05-05T16:22:24.772Z,27
2023-05-05T16:24:08.472Z,28
2023-05-05T16:25:52.163Z,29
2023-05-05T16:27:35.867Z,32
2023-05-05T16:29:19.564Z,35
2023-05-05T16:31:03.276Z,36
2023-05-05T16:32:46.977Z,36
2023-05-05T16:34:30.683Z,36
2023-05-05T16:36:14.444Z,37
2023-05-05T16:37:58.104Z,37
2023-05-05T16:39:41.780Z,39
2023-05-05T16:41:25.488Z,38
2023-05-05T16:43:09.206Z,39
2023-05-05T16:44:52.895Z,44
2023-05-05T16:46:36.616Z,52
2023-05-05T16:48:20.301Z,62
2023-05-05T16:50:04.000Z,77
2023-05-05T16:51:47.711Z,99
2023-05-05T16:53:31.440Z,140
2023-05-05T16:55:15.112Z,209
2023-05-05T16:56:58.841Z,322
2023-05-05T16:58:42.525Z,557
2023-05-05T17:00:26.224Z,736
2023-05-05T17:02:09.918Z,740
2023-05-05T17:05:37.326Z,606
2023-05-05T17:07:21.025Z,548
2023-05-05T17:09:04.739Z,495
2023-05-05T17:10:48.463Z,454
2023-05-05T17:14:15.840Z,382
2023-05-05T17:15:59.537Z,333
2023-05-05T17:17:43.261Z,302
2023-05-05T17:19:26.942Z,276
2023-05-05T17:21:10.654Z,249
2023-05-05T17:22:54.348Z,230
2023-05-05T17:24:38.052Z,212
2023-05-05T17:26:21.751Z,206
2023-05-05T17:28:05.463Z,199
2023-05-05T17:29:49.161Z,186
2023-05-05T17:31:33.024Z,171
2023-05-05T17:33:16.567Z,156
2023-05-05T17:35:00.294Z,141
2023-05-05T17:36:43.968Z,129
2023-05-05T17:38:27.668Z,124
2023-05-05T17:40:11.369Z,122
2023-05-05T17:41:55.077Z,122
2023-05-05T17:45:22.558Z,137
2023-05-05T17:47:06.263Z,151
2023-05-05T17:50:33.597Z,222
2023-05-05T17:52:17.291Z,241
2023-05-05T17:55:44.696Z,246
2023-05-05T17:57:28.419Z,245
2023-05-05T17:59:12.126Z,232
2023-05-05T18:00:55.823Z,221
2023-05-05T18:02:46.579Z,214
2023-05-05T18:04:23.221Z,213
2023-05-05T18:06:06.998Z,204
2023-05-05T18:07:50.610Z,197
2023-05-05T18:09:34.313Z,166
2023-05-05T18:11:18.077Z,147
2023-05-05T18:16:29.138Z,137
2023-05-05T18:18:12.831Z,140
2023-05-05T18:19:56.553Z,141
2023-05-05T18:21:40.227Z,134
2023-05-05T18:25:07.658Z,101
2023-05-05T18:30:18.752Z,46
2023-05-05T18:32:02.500Z,40
2023-05-05T18:33:46.154Z,29
2023-05-05T18:35:29.848Z,23
2023-05-05T18:38:57.263Z,16
2023-05-05T18:40:40.958Z,13
2023-05-05T18:42:24.662Z,10
2023-05-05T18:44:08.418Z,9
2023-05-05T18:45:52.070Z,7
2023-05-05T18:47:35.773Z,6
2023-05-05T18:49:19.468Z,6
2023-05-05T18:51:03.183Z,4
2023-05-05T18:54:30.575Z,3
2023-05-05T18:56:14.287Z,3
2023-05-05T18:57:57.988Z,3
2023-05-05T18:59:48.695Z,2
2023-05-05T19:01:32.390Z,1
2023-05-05T19:03:09.103Z,2
2023-05-05T19:04:52.948Z,1
2023-05-05T19:08:20.380Z,1
2023-05-05T19:10:04.192Z,1
2023-05-05T19:11:54.808Z,2
2023-05-05T19:13:38.296Z,1
2023-05-05T19:15:15.170Z,1
2023-05-05T19:16:58.707Z,2
2023-05-05T19:18:49.591Z,2
2023-05-05T19:20:26.286Z,1
2023-05-05T19:22:09.867Z,2
2023-05-05T19:23:53.665Z,1
2023-05-05T19:25:37.264Z,1
2023-05-05T19:29:04.748Z,0
2023-05-05T19:30:48.332Z,1
2023-05-05T19:32:32.263Z,2
2023-05-05T19:35:59.524Z,2
2023-05-05T19:37:43.145Z,1
2023-05-05T19:39:33.853Z,2
2023-05-05T19:42:54.370Z,1
2023-05-05T19:44:38.008Z,2
2023-05-05T19:46:21.810Z,2
2023-05-05T19:48:12.544Z,1
2023-05-05T19:49:49.210Z,1
2023-05-05T19:51:32.790Z,2
2023-05-05T19:53:16.610Z,1
2023-05-05T19:55:00.384Z,1
2023-05-05T19:56:51.051Z,1
2023-05-05T19:58:27.741Z,1
2023-05-05T20:00:11.353Z,0
2023-05-05T20:01:55.119Z,1
2023-05-05T20:03:38.781Z,1
2023-05-05T20:05:22.452Z,1
2023-05-05T20:07:13.267Z,2
2023-05-05T20:08:49.900Z,2
2023-05-05T20:10:33.615Z,2
2023-05-05T20:12:17.340Z,2
2023-05-05T20:14:08.051Z,2
2023-05-05T20:15:44.761Z,2
2023-05-05T20:17:28.475Z,1
2023-05-05T20:19:12.221Z,2
2023-05-05T20:20:55.829Z,2
2023-05-05T20:33:01.823Z,38
2023-05-05T20:34:45.464Z,35
2023-05-05T20:38:12.729Z,36
2023-05-05T20:43:23.879Z,36
2023-05-05T20:46:51.326Z,35
2023-05-05T20:48:35.127Z,35
2023-05-05T20:52:02.607Z,35
2023-05-05T20:53:46.071Z,35
2023-05-05T20:57:13.655Z,35
2023-05-05T20:58:57.303Z,36
2023-05-05T21:00:41.048Z,36
2023-05-05T21:02:24.731Z,37
2023-05-05T21:04:08.438Z,37
2023-05-05T21:05:59.168Z,37
2023-05-05T21:07:35.686Z,38
2023-05-05T21:09:33.549Z,38
2023-05-05T21:11:10.237Z,38
2023-05-05T21:12:46.958Z,39
2023-05-05T21:14:30.502Z,39
2023-05-05T21:16:14.268Z,37
2023-05-05T21:17:58.077Z,38
2023-05-05T21:19:41.773Z,38
2023-05-05T21:21:25.478Z,38
2023-05-05T21:23:09.162Z,38
2023-05-05T21:24:52.815Z,38
2023-05-05T21:26:36.490Z,37
2023-05-05T21:28:20.247Z,38
2023-05-05T21:30:03.812Z,37
2023-05-05T21:31:47.639Z,37
2023-05-05T21:33:31.350Z,37
2023-05-05T21:35:15.104Z,38
2023-05-05T21:36:58.795Z,1
2023-05-05T21:38:42.437Z,1
2023-05-05T21:40:26.097Z,2
2023-05-05T21:42:09.724Z,0
2023-05-05T21:43:53.548Z,1
2023-05-05T21:45:37.128Z,1
2023-05-05T21:47:21.001Z,1
2023-05-05T21:49:04.606Z,1
2023-05-05T21:50:48.288Z,1
2023-05-05T21:52:32.119Z,2
2023-05-05T21:54:15.799Z,2
2023-05-05T21:55:59.418Z,2
2023-05-05T21:57:43.285Z,1
2023-05-05T22:01:10.484Z,2
2023-05-05T22:02:54.306Z,2
2023-05-05T22:04:38.036Z,1
2023-05-05T22:06:21.765Z,1
2023-05-05T22:08:05.353Z,0
2023-05-05T22:09:48.972Z,1
2023-05-05T22:11:32.678Z,1
2023-05-05T22:13:16.370Z,1
2023-05-05T22:15:00.074Z,1
2023-05-05T22:16:43.791Z,1
2023-05-05T22:18:27.536Z,1
2023-05-05T22:20:11.192Z,2
2023-05-05T22:21:54.882Z,1
2023-05-05T22:23:38.587Z,1
2023-05-05T22:25:22.389Z,1
2023-05-05T22:27:06.017Z,1
2023-05-05T22:28:49.687Z,2
2023-05-05T22:32:17.274Z,1
2023-05-05T22:34:01.007Z,1
2023-05-05T22:35:44.618Z,2
2023-05-05T22:37:28.381Z,1
2023-05-05T22:39:12.099Z,1
2023-05-05T22:40:55.659Z,1
2023-05-05T22:42:39.311Z,2
2023-05-05T22:44:23.012Z,1
2023-05-05T22:46:06.726Z,1
2023-05-05T22:47:50.541Z,2
2023-05-05T22:49:34.205Z,2
2023-05-05T22:51:17.959Z,1
2023-05-05T22:54:45.306Z,1
2023-05-05T22:56:29.019Z,2
2023-05-05T22:58:12.758Z,1
2023-05-05T22:59:56.473Z,1
2023-05-05T23:01:40.122Z,1
2023-05-05T23:03:23.773Z,1
2023-05-05T23:05:07.490Z,2
2023-05-05T23:06:51.297Z,1
2023-05-05T23:08:34.993Z,1
2023-05-05T23:10:18.550Z,1
2023-05-05T23:12:02.398Z,1
2023-05-05T23:13:46.141Z,1
2023-05-05T23:17:13.380Z,1
2023-05-05T23:18:57.064Z,1
2023-05-05T23:20:40.938Z,0
2023-05-05T23:22:24.600Z,1
2023-05-05T23:24:08.356Z,1
2023-05-05T23:25:51.987Z,1
2023-05-05T23:27:35.721Z,2
2023-05-05T23:29:19.429Z,1
2023-05-05T23:31:03.075Z,1
2023-05-05T23:32:46.874Z,1
2023-05-05T23:34:30.384Z,1
2023-05-05T23:36:14.102Z,2
2023-05-05T23:37:57.785Z,1
2023-05-05T23:39:41.498Z,1
2023-05-05T23:41:25.200Z,1
2023-05-05T23:43:08.910Z,1
2023-05-05T23:44:52.649Z,1
2023-05-05T23:46:36.302Z,2
2023-05-05T23:48:19.999Z,0
2023-05-05T23:50:03.711Z,1
2023-05-05T23:53:31.110Z,1
2023-05-05T23:55:14.814Z,1
2023-05-05T23:56:58.523Z,1
2023-05-05T23:58:42.242Z,1
